Pagrindinis puslapis
METAR-TAF:

METAR-TAF

Oro uostai :

Pontianakas, Indonezija

platuma: 00-09S, ilguma: 109-24E, Aukštis: 3 m

Dabartinis oras

Ataskaita buvo paskelbta 6 valandos ir 58 minutes, ne 22:30 UTC
Ramus vėjas
Temperatūra 25°C
Drėgmė 94%
Slėgis 1011 hPa
Matomumas: 2000 m
dūmai

METAR: WIOO 202230Z 00000KT 2000 FU VV005 25/24 Q1011 NOSIG

Laikas: 12:28 (05:28 UTC)


TAF: trūkstamas

Orai ataskaitas ir orų prognozės (METAR, TAF).

turimą stotys yra geltonos ir raudonos taškus žemėlapyje.

Perkelti pele per norėdami pamatyti stoties vardą.

Tada spustelėkite, norėdami matyti oro stebėjimo ir prognozės.

Norėdami pakeisti žemėlapį: spustelėkite ant žalios mygtukų su juodo kryžiaus žemyn,; žalią mygtuką su brūkšneliu, jei norite nutolinti; arba žalių rodyklių gretimoms žemėlapius.


METAR-TAF: